Time;durP1;ratioP1;P1;durP2;ratioP2;P2;SDS_P1;SDS_P2;PMS_P1;PMS_P2;Temp;Humidity;BMP_temperature;BMP_pressure;BME280_temperature;BME280_humidity;BME280_pressure;Samples;Min_cycle;Max_cycle;Signal;HPM_P1;HPM_P2
2024/03/08 00:01:31;;;;;;;30.98;22.08;;;231.00;2252.80;;;;;;5028217;28;20041;-73
2024/03/08 00:03:56;;;;;;;36.15;26.45;;;231.00;2252.80;;;;;;5000894;28;20353;-75
2024/03/08 00:06:22;;;;;;;36.00;25.85;;;231.00;2252.80;;;;;;5012706;28;20029;-75
2024/03/08 00:08:48;;;;;;;38.72;28.15;;;231.00;2252.80;;;;;;5010619;28;20383;-76
2024/03/08 00:11:14;;;;;;;30.13;22.25;;;231.00;2252.80;;;;;;5011495;28;20539;-75
2024/03/08 00:13:40;;;;;;;20.73;16.27;;;231.10;2252.80;;;;;;5016259;28;20112;-76
2024/03/08 00:16:07;;;;;;;21.52;16.52;;;231.00;2252.80;;;;;;5028056;28;20349;-75
2024/03/08 00:18:33;;;;;;;23.73;18.65;;;231.10;2252.80;;;;;;5028369;28;20033;-75
2024/03/08 00:21:00;;;;;;;23.95;17.63;;;231.10;2252.80;;;;;;5026538;28;20051;-75
2024/03/08 00:23:26;;;;;;;27.33;17.60;;;231.10;2252.80;;;;;;5016428;28;20029;-75
2024/03/08 00:25:52;;;;;;;22.27;17.60;;;231.10;2252.80;;;;;;5025489;28;20471;-77
2024/03/08 00:28:18;;;;;;;23.63;20.15;;;231.10;2252.80;;;;;;5017384;28;20078;-76
2024/03/08 00:30:45;;;;;;;28.27;20.23;;;231.20;2252.80;;;;;;5014760;28;20022;-75
2024/03/08 00:33:11;;;;;;;31.90;23.58;;;231.20;2252.80;;;;;;5009969;28;20032;-74
2024/03/08 00:35:37;;;;;;;23.08;16.40;;;231.10;2252.80;;;;;;5009754;28;20077;-76
2024/03/08 00:38:03;;;;;;;20.25;15.07;;;231.20;2252.80;;;;;;5009178;28;20054;-74
2024/03/08 00:40:29;;;;;;;19.77;14.57;;;231.20;2252.80;;;;;;5000108;28;20049;-76
2024/03/08 00:42:55;;;;;;;20.08;13.90;;;231.20;2252.80;;;;;;4995397;28;20033;-74
2024/03/08 00:45:22;;;;;;;20.80;15.50;;;231.20;2252.80;;;;;;5020934;28;20487;-77
2024/03/08 00:47:47;;;;;;;25.10;18.48;;;231.10;2252.80;;;;;;5015708;28;20037;-76
2024/03/08 00:50:15;;;;;;;22.23;17.02;;;231.10;2252.80;;;;;;5008903;28;20026;-76
2024/03/08 00:52:41;;;;;;;25.17;17.20;;;231.10;2252.80;;;;;;5014725;28;20061;-76
2024/03/08 00:55:10;;;;;;;31.90;26.05;;;230.90;2252.80;;;;;;4991442;28;20057;-75
2024/03/08 00:57:36;;;;;;;27.70;19.17;;;231.10;2252.80;;;;;;4990000;28;20357;-74
2024/03/08 01:00:09;;;;;;;23.63;18.30;;;231.10;2252.80;;;;;;5001127;28;20026;-73
2024/03/08 01:02:35;;;;;;;25.15;18.45;;;231.10;2252.80;;;;;;5004441;28;20657;-78
2024/03/08 01:05:02;;;;;;;22.90;16.30;;;231.10;2252.80;;;;;;5013668;28;20502;-76
2024/03/08 01:07:28;;;;;;;22.00;17.50;;;231.10;2252.80;;;;;;5023462;28;20065;-74
2024/03/08 01:09:53;;;;;;;25.30;15.75;;;231.20;2252.80;;;;;;5022208;28;20049;-75
2024/03/08 01:12:20;;;;;;;22.30;16.20;;;231.20;2252.80;;;;;;5025994;28;20446;-74
2024/03/08 01:14:45;;;;;;;20.45;16.08;;;231.20;2252.80;;;;;;5000663;28;20026;-75
2024/03/08 01:17:12;;;;;;;23.83;17.23;;;231.20;2252.80;;;;;;5031366;28;20471;-75
2024/03/08 01:19:38;;;;;;;23.90;16.75;;;231.20;2252.80;;;;;;5029716;28;20108;-76
2024/03/08 01:22:04;;;;;;;22.73;16.75;;;231.20;2252.80;;;;;;5030996;28;20558;-75
2024/03/08 01:24:30;;;;;;;22.77;17.45;;;231.20;2252.80;;;;;;5028996;28;20502;-74
2024/03/08 01:26:56;;;;;;;23.08;18.00;;;231.10;2252.80;;;;;;5030145;28;20042;-75
2024/03/08 01:29:22;;;;;;;22.05;17.75;;;231.00;2252.80;;;;;;5028565;28;20024;-75
2024/03/08 01:31:48;;;;;;;20.52;15.32;;;231.10;2252.80;;;;;;5029798;28;20064;-74
2024/03/08 01:34:14;;;;;;;25.42;17.90;;;231.10;2252.80;;;;;;5027680;28;20487;-74
2024/03/08 01:36:40;;;;;;;26.20;18.75;;;231.10;2252.80;;;;;;5029080;28;20049;-73
2024/03/08 01:39:09;;;;;;;28.80;21.40;;;231.10;2252.80;;;;;;5023592;28;20025;-75
2024/03/08 01:41:35;;;;;;;27.67;19.10;;;231.10;2252.80;;;;;;5011624;28;20025;-75
2024/03/08 01:44:02;;;;;;;28.33;19.55;;;231.10;2252.80;;;;;;5028389;28;20029;-73
2024/03/08 01:46:30;;;;;;;27.60;20.83;;;231.00;2252.80;;;;;;5029114;28;20022;-76
2024/03/08 01:48:57;;;;;;;31.30;23.67;;;231.00;2252.80;;;;;;5012919;28;20239;-74
2024/03/08 01:51:23;;;;;;;42.75;31.10;;;231.00;2252.80;;;;;;5011779;28;20494;-74
2024/03/08 01:53:49;;;;;;;47.83;30.48;;;230.70;2252.80;;;;;;5011705;28;20052;-74
2024/03/08 01:56:15;;;;;;;39.28;26.17;;;230.60;2252.80;;;;;;5011476;28;20033;-74
2024/03/08 01:58:43;;;;;;;41.33;30.77;;;230.60;2252.80;;;;;;5011877;28;20029;-74
2024/03/08 02:01:13;;;;;;;36.00;26.05;;;230.70;2252.80;;;;;;5011429;28;20433;-74
2024/03/08 02:03:39;;;;;;;33.97;23.35;;;230.70;2252.80;;;;;;5011102;28;20030;-73
2024/03/08 02:06:08;;;;;;;31.35;21.48;;;230.70;2252.80;;;;;;4998584;28;20029;-74
2024/03/08 02:08:34;;;;;;;28.85;20.90;;;230.80;2252.80;;;;;;5011211;28;20029;-75
2024/03/08 02:11:02;;;;;;;30.83;21.67;;;230.80;2252.80;;;;;;5011476;28;20498;-74
2024/03/08 02:13:28;;;;;;;30.90;21.45;;;230.70;2252.80;;;;;;5010981;28;20026;-73
2024/03/08 02:16:01;;;;;;;25.92;20.35;;;230.80;2252.80;;;;;;5011027;28;20037;-74
2024/03/08 02:18:28;;;;;;;29.08;19.10;;;230.70;2252.80;;;;;;5011264;28;20025;-74
2024/03/08 02:20:56;;;;;;;30.83;22.80;;;230.70;2252.80;;;;;;5011268;28;20208;-74
2024/03/08 02:23:24;;;;;;;40.00;32.15;;;230.80;2252.80;;;;;;5011089;28;20495;-75
2024/03/08 02:25:50;;;;;;;36.63;29.40;;;230.70;2252.80;;;;;;5011286;28;20085;-74
2024/03/08 02:28:18;;;;;;;41.97;29.30;;;230.70;2252.80;;;;;;5010495;28;20297;-74
2024/03/08 02:30:47;;;;;;;51.88;34.67;;;230.80;2252.80;;;;;;5011048;28;20060;-75
2024/03/08 02:33:18;;;;;;;33.92;26.50;;;230.80;2252.80;;;;;;5011013;28;20029;-74
2024/03/08 02:35:47;;;;;;;29.80;22.60;;;230.80;2252.80;;;;;;5010958;28;20094;-74
2024/03/08 02:38:21;;;;;;;29.20;22.60;;;230.90;2252.80;;;;;;5010832;28;20052;-73
2024/03/08 02:40:51;;;;;;;26.40;19.25;;;230.90;2252.80;;;;;;5010545;28;20029;-75
2024/03/08 02:43:18;;;;;;;28.55;21.15;;;230.90;2252.80;;;;;;4998060;28;20018;-77
2024/03/08 02:45:45;;;;;;;28.85;20.98;;;230.90;2252.80;;;;;;5010746;28;20023;-75
2024/03/08 02:48:11;;;;;;;28.02;19.90;;;230.90;2252.80;;;;;;5010402;28;20037;-76
2024/03/08 02:50:40;;;;;;;25.63;19.17;;;230.80;2252.80;;;;;;5010272;28;20091;-74
2024/03/08 02:53:06;;;;;;;25.52;18.88;;;230.80;2252.80;;;;;;5010153;28;20401;-74
2024/03/08 02:55:35;;;;;;;27.63;21.00;;;230.80;2252.80;;;;;;5010288;28;20045;-76
2024/03/08 02:58:03;;;;;;;31.40;21.30;;;230.80;2252.80;;;;;;5010635;28;20022;-73
2024/03/08 03:00:30;;;;;;;26.08;19.85;;;230.60;2252.80;;;;;;5010374;28;20047;-73
2024/03/08 03:02:59;;;;;;;26.42;19.42;;;230.60;2252.80;;;;;;5010242;28;20014;-72
2024/03/08 03:05:25;;;;;;;27.60;19.38;;;230.60;2252.80;;;;;;5010679;28;20504;-73
2024/03/08 03:07:51;;;;;;;26.63;19.88;;;230.60;2252.80;;;;;;5010191;28;20037;-74
2024/03/08 03:10:17;;;;;;;28.75;20.85;;;230.60;2252.80;;;;;;5009949;28;20026;-71
2024/03/08 03:12:44;;;;;;;24.60;18.65;;;230.60;2252.80;;;;;;5010440;28;20036;-74
2024/03/08 03:15:13;;;;;;;32.50;26.23;;;230.60;2252.80;;;;;;5010233;28;20026;-71
2024/03/08 03:17:50;;;;;;;30.77;20.10;;;230.60;2252.80;;;;;;5010219;28;20033;-73
2024/03/08 03:20:25;;;;;;;26.58;19.75;;;230.60;2252.80;;;;;;5009930;28;20368;-73
2024/03/08 03:22:52;;;;;;;23.05;16.95;;;230.60;2252.80;;;;;;5010164;28;20041;-76
2024/03/08 03:25:25;;;;;;;30.95;22.23;;;230.60;2252.80;;;;;;5009581;28;20049;-73
2024/03/08 03:27:52;;;;;;;;;;;230.60;2252.80;;;;;;5009823;28;20049;-76
2024/03/08 03:30:20;;;;;;;27.38;20.45;;;230.60;2252.80;;;;;;5009475;28;19914;-73
2024/03/08 03:32:50;;;;;;;25.73;18.42;;;230.60;2252.80;;;;;;5009640;28;20029;-73
2024/03/08 03:35:17;;;;;;;28.92;19.75;;;230.60;2252.80;;;;;;4979098;28;20038;-71
2024/03/08 03:38:06;;;;;;;27.90;19.48;;;230.60;2252.80;;;;;;5009724;28;20170;-73
2024/03/08 03:40:36;;;;;;;28.33;19.80;;;230.50;2252.80;;;;;;5009693;28;20026;-74
2024/03/08 03:43:03;;;;;;;29.77;21.25;;;230.50;2252.80;;;;;;5009902;28;20029;-73
2024/03/08 03:45:29;;;;;;;29.90;21.55;;;230.50;2252.80;;;;;;5009435;28;20029;-73
2024/03/08 03:47:55;;;;;;;30.88;21.25;;;230.50;2252.80;;;;;;5008986;28;20025;-74
2024/03/08 03:50:24;;;;;;;30.60;20.42;;;230.50;2252.80;;;;;;5009455;28;20118;-73
2024/03/08 03:52:50;;;;;;;31.95;20.60;;;230.40;2252.80;;;;;;5009417;28;20080;-73
2024/03/08 03:55:16;;;;;;;27.52;20.45;;;230.50;2252.80;;;;;;5009365;28;20029;-74
2024/03/08 03:57:45;;;;;;;33.50;22.67;;;230.60;2252.80;;;;;;5009641;28;20072;-75
2024/03/08 04:00:11;;;;;;;33.20;22.67;;;230.50;2252.80;;;;;;5009449;28;20045;-74
2024/03/08 04:02:41;;;;;;;29.23;20.92;;;230.60;2252.80;;;;;;5009196;28;20057;-75
2024/03/08 04:05:08;;;;;;;31.38;22.92;;;230.60;2252.80;;;;;;5009171;28;20033;-75
2024/03/08 04:07:35;;;;;;;36.17;26.85;;;230.60;2252.80;;;;;;5009412;28;20034;-73
2024/03/08 04:10:02;;;;;;;31.60;23.98;;;230.60;2252.80;;;;;;5009124;28;20046;-72
2024/03/08 04:12:29;;;;;;;31.58;22.15;;;230.60;2252.80;;;;;;5009242;28;20080;-72
2024/03/08 04:14:55;;;;;;;34.58;23.25;;;230.60;2252.80;;;;;;5009117;28;20013;-73
2024/03/08 04:17:23;;;;;;;48.33;31.67;;;230.70;2252.80;;;;;;5009171;28;20061;-74
2024/03/08 04:19:49;;;;;;;45.38;29.20;;;230.60;2252.80;;;;;;5008927;28;20022;-75
2024/03/08 04:22:17;;;;;;;39.40;25.83;;;230.60;2252.80;;;;;;5008924;28;20120;-74
2024/03/08 04:24:44;;;;;;;48.85;29.67;;;230.60;2252.80;;;;;;5008898;28;20080;-73
2024/03/08 04:27:10;;;;;;;41.90;27.80;;;230.70;2252.80;;;;;;5009117;28;20050;-74
2024/03/08 04:29:36;;;;;;;32.90;22.23;;;230.80;2252.80;;;;;;5008676;28;20502;-73
2024/03/08 04:32:09;;;;;;;31.42;22.58;;;230.70;2252.80;;;;;;5009338;28;20049;-74
2024/03/08 04:34:35;;;;;;;30.27;21.27;;;230.80;2252.80;;;;;;5009048;28;20026;-76
2024/03/08 04:37:04;;;;;;;62.30;51.40;;;230.80;2252.80;;;;;;5009257;28;20487;-74
2024/03/08 04:39:31;;;;;;;55.90;42.92;;;230.80;2252.80;;;;;;5009790;28;20108;-74
2024/03/08 04:42:03;;;;;;;41.95;34.60;;;230.80;2252.80;;;;;;5013158;28;20017;-74
2024/03/08 04:44:29;;;;;;;35.92;26.85;;;230.80;2252.80;;;;;;5012951;28;21394;-73
2024/03/08 04:46:55;;;;;;;36.85;23.67;;;230.80;2252.80;;;;;;5013063;28;20041;-75
2024/03/08 04:49:22;;;;;;;34.00;24.15;;;230.80;2252.80;;;;;;5012856;28;20034;-74
2024/03/08 04:51:48;;;;;;;31.90;23.40;;;230.80;2252.80;;;;;;5012780;28;20048;-74
2024/03/08 04:54:14;;;;;;;34.47;22.83;;;230.80;2252.80;;;;;;5012758;28;20471;-74
2024/03/08 04:56:40;;;;;;;37.42;25.08;;;230.70;2252.80;;;;;;5012711;28;20479;-73
2024/03/08 04:59:08;;;;;;;32.30;23.80;;;230.80;2252.80;;;;;;5012455;28;20084;-74
2024/03/08 05:01:34;;;;;;;33.83;22.70;;;230.70;2252.80;;;;;;5013045;28;20018;-73
2024/03/08 05:04:00;;;;;;;37.67;26.70;;;230.70;2252.80;;;;;;5012379;28;20534;-73
2024/03/08 05:06:25;;;;;;;33.20;24.98;;;230.80;2252.80;;;;;;5012818;28;20037;-75
2024/03/08 05:08:51;;;;;;;33.58;22.85;;;230.80;2252.80;;;;;;5012480;28;20088;-74
2024/03/08 05:11:17;;;;;;;34.88;22.40;;;230.80;2252.80;;;;;;5012458;28;20069;-76
2024/03/08 05:13:45;;;;;;;33.30;25.35;;;230.70;2252.80;;;;;;5012479;28;20379;-73
2024/03/08 05:16:10;;;;;;;47.70;41.83;;;230.80;2252.80;;;;;;5012213;28;20030;-76
2024/03/08 05:18:36;;;;;;;36.70;26.48;;;230.80;2252.80;;;;;;5012494;28;20029;-75
2024/03/08 05:21:05;;;;;;;32.97;23.95;;;230.80;2252.80;;;;;;5012201;28;20032;-73
2024/03/08 05:23:31;;;;;;;35.13;23.67;;;230.80;2252.80;;;;;;5012179;28;20022;-74
2024/03/08 05:25:57;;;;;;;31.80;21.27;;;230.80;2252.80;;;;;;5016751;28;20364;-77
2024/03/08 05:28:23;;;;;;;30.63;22.45;;;230.80;2252.80;;;;;;5012335;28;20069;-75
2024/03/08 05:30:49;;;;;;;30.58;20.80;;;230.90;2252.80;;;;;;5011856;28;20053;-76
2024/03/08 05:33:15;;;;;;;32.80;21.67;;;230.90;2252.80;;;;;;5012343;28;20033;-74
2024/03/08 05:35:41;;;;;;;29.80;20.00;;;230.90;2252.80;;;;;;5011793;28;20390;-76
2024/03/08 05:38:06;;;;;;;34.03;24.08;;;230.90;2252.80;;;;;;5012162;28;20022;-76
2024/03/08 05:40:33;;;;;;;32.58;23.85;;;230.90;2252.80;;;;;;5011762;28;20525;-76
2024/03/08 05:42:59;;;;;;;32.03;20.92;;;230.90;2252.80;;;;;;5012198;28;20018;-77
2024/03/08 05:45:26;;;;;;;28.50;22.08;;;231.20;2252.80;;;;;;5011859;28;20022;-77
2024/03/08 05:47:52;;;;;;;44.05;33.17;;;231.00;2252.80;;;;;;5012956;28;20045;-74
2024/03/08 05:50:19;;;;;;;49.08;37.50;;;231.10;2252.80;;;;;;5011149;28;20396;-76
2024/03/08 05:52:45;;;;;;;50.40;38.20;;;231.00;2252.80;;;;;;5010898;28;20480;-76
2024/03/08 05:55:14;;;;;;;41.08;31.35;;;231.00;2252.80;;;;;;5011454;28;20026;-76
2024/03/08 05:57:40;;;;;;;36.35;29.23;;;231.00;2252.80;;;;;;5011611;28;20053;-76
2024/03/08 06:00:06;;;;;;;38.80;28.38;;;231.00;2252.80;;;;;;5011801;28;20460;-73
2024/03/08 06:02:33;;;;;;;36.25;29.27;;;231.10;2252.80;;;;;;5011641;28;20018;-74
2024/03/08 06:04:59;;;;;;;44.33;35.78;;;231.00;2252.80;;;;;;5011156;28;20022;-74
2024/03/08 06:07:24;;;;;;;32.67;26.30;;;231.10;2252.80;;;;;;4998221;28;20037;-74
2024/03/08 06:09:50;;;;;;;30.80;23.02;;;231.10;2252.80;;;;;;5011806;28;20029;-74
2024/03/08 06:12:18;;;;;;;34.40;23.45;;;231.10;2252.80;;;;;;5011211;28;20026;-76
2024/03/08 06:14:45;;;;;;;31.20;23.42;;;231.10;2252.80;;;;;;5011308;28;20030;-72
2024/03/08 06:17:11;;;;;;;28.63;21.05;;;231.00;2252.80;;;;;;5011314;28;20029;-74
2024/03/08 06:19:37;;;;;;;31.70;22.08;;;231.00;2252.80;;;;;;5011060;28;20030;-74
2024/03/08 06:22:05;;;;;;;30.05;20.10;;;231.10;2252.80;;;;;;5011013;28;20018;-77
2024/03/08 06:24:36;;;;;;;34.30;23.70;;;231.10;2252.80;;;;;;5011518;28;20030;-76
2024/03/08 06:27:02;;;;;;;33.90;22.92;;;231.10;2252.80;;;;;;5011180;28;20368;-74
2024/03/08 06:29:28;;;;;;;33.00;23.00;;;231.00;2252.80;;;;;;5010974;28;20498;-74
2024/03/08 06:31:54;;;;;;;30.02;22.17;;;231.00;2252.80;;;;;;5011056;28;20018;-73
2024/03/08 06:34:19;;;;;;;29.02;22.92;;;231.00;2252.80;;;;;;5010914;28;20387;-75
2024/03/08 06:36:45;;;;;;;31.65;21.45;;;230.90;2252.80;;;;;;5010693;28;20375;-75
2024/03/08 06:39:11;;;;;;;28.92;22.42;;;230.90;2252.80;;;;;;5010854;28;20491;-76
2024/03/08 06:41:37;;;;;;;30.60;22.88;;;230.90;2252.80;;;;;;5010787;28;20029;-76
2024/03/08 06:44:03;;;;;;;37.50;25.33;;;231.00;2252.80;;;;;;5010565;28;20041;-75
2024/03/08 06:46:29;;;;;;;32.47;24.40;;;231.10;2252.80;;;;;;5010495;28;20025;-75
2024/03/08 06:48:55;;;;;;;42.50;27.90;;;231.10;2252.80;;;;;;5010516;28;20152;-76
2024/03/08 06:51:22;;;;;;;35.13;24.85;;;231.20;2252.80;;;;;;5011173;28;20026;-73
2024/03/08 06:53:49;;;;;;;37.42;26.35;;;231.20;2252.80;;;;;;5003843;28;20026;-74
2024/03/08 06:56:15;;;;;;;33.42;24.10;;;231.30;2252.80;;;;;;5010825;28;20049;-74
2024/03/08 06:58:42;;;;;;;44.05;33.10;;;231.30;2252.80;;;;;;5020116;28;20025;-81
2024/03/08 07:01:13;;;;;;;36.78;29.23;;;256.10;2252.80;;;;;;5007596;28;20599;-80
2024/03/08 07:03:44;;;;;;;32.72;24.38;;;256.20;2252.80;;;;;;5012809;28;20034;-73
2024/03/08 07:06:10;;;;;;;37.67;25.75;;;256.20;2252.80;;;;;;4999035;28;20029;-75
2024/03/08 07:08:36;;;;;;;29.58;21.33;;;256.10;2252.80;;;;;;5009938;28;20038;-78
2024/03/08 07:11:03;;;;;;;28.35;21.27;;;256.30;2252.80;;;;;;5010204;28;20069;-80
2024/03/08 07:13:29;;;;;;;33.65;25.77;;;256.30;2252.80;;;;;;5010279;28;20044;-81
2024/03/08 07:15:55;;;;;;;60.35;40.45;;;256.40;2252.80;;;;;;5011903;28;20084;-73
2024/03/08 07:18:21;;;;;;;54.20;38.83;;;256.50;2252.80;;;;;;5017872;28;20026;-80
2024/03/08 07:20:49;;;;;;;54.33;36.65;;;256.50;2252.80;;;;;;5005210;28;20072;-80
2024/03/08 07:23:46;;;;;;;56.78;37.78;;;256.40;2252.80;;;;;;4984819;28;20041;-73
2024/03/08 07:26:01;;;;;;;53.28;36.65;;;256.50;2252.80;;;;;;5009974;28;20025;-78
2024/03/08 07:28:27;;;;;;;57.83;40.97;;;256.30;2252.80;;;;;;5009946;28;20034;-72
2024/03/08 07:31:01;;;;;;;55.58;40.08;;;256.50;2252.80;;;;;;5010169;28;20468;-75
2024/03/08 07:33:27;;;;;;;49.25;37.35;;;256.50;2252.80;;;;;;5009916;28;20371;-80
2024/03/08 07:35:53;;;;;;;52.17;38.35;;;256.50;2252.80;;;;;;5010290;28;20112;-78
2024/03/08 07:38:21;;;;;;;42.47;29.90;;;256.40;2252.80;;;;;;5018461;28;20044;-73
2024/03/08 07:40:47;;;;;;;52.47;34.75;;;256.50;2252.80;;;;;;5009523;28;20022;-73
2024/03/08 07:43:13;;;;;;;47.88;34.45;;;256.50;2252.80;;;;;;5009589;28;20036;-78
2024/03/08 07:45:39;;;;;;;51.15;36.53;;;256.40;2252.80;;;;;;5009709;28;20134;-78
2024/03/08 07:48:09;;;;;;;52.55;34.38;;;256.40;2252.80;;;;;;5009438;28;20057;-72
2024/03/08 07:50:39;;;;;;;46.95;33.65;;;256.60;2252.80;;;;;;5009509;28;20033;-73
2024/03/08 07:53:06;;;;;;;42.63;31.40;;;256.50;2252.80;;;;;;5009411;28;20116;-71
2024/03/08 07:55:34;;;;;;;44.33;32.45;;;256.30;2252.80;;;;;;5009487;28;20041;-73
2024/03/08 07:58:00;;;;;;;49.92;38.10;;;256.20;2252.80;;;;;;4996678;28;20222;-78
2024/03/08 08:00:27;;;;;;;81.63;62.00;;;256.40;2252.80;;;;;;5002125;28;20469;-71
2024/03/08 08:02:53;;;;;;;57.33;37.53;;;256.70;2252.80;;;;;;5012044;28;20025;-70
2024/03/08 08:05:19;;;;;;;40.17;29.10;;;281.60;2278.40;;;;;;5000979;28;20477;-78
2024/03/08 08:07:46;;;;;;;57.38;40.25;;;256.70;2252.80;;;;;;5009338;28;20033;-76
2024/03/08 08:10:21;;;;;;;53.25;33.53;;;256.90;2252.80;;;;;;4989711;28;20320;-76
2024/03/08 08:12:51;;;;;;;50.95;32.25;;;256.90;2252.80;;;;;;5022708;28;20017;-71
2024/03/08 08:15:17;;;;;;;76.32;53.90;;;256.90;2252.80;;;;;;5028237;28;20037;-75
2024/03/08 08:17:47;;;;;;;55.03;37.85;;;256.90;2252.80;;;;;;5028391;28;20025;-71
2024/03/08 08:20:13;;;;;;;52.88;34.90;;;281.70;2278.40;;;;;;5028258;28;20029;-74
2024/03/08 08:22:40;;;;;;;37.42;27.55;;;256.90;2252.80;;;;;;5027052;28;20052;-76
2024/03/08 08:25:07;;;;;;;88.20;69.05;;;256.70;2252.80;;;;;;5027618;28;20082;-77
2024/03/08 08:27:33;;;;;;;55.47;38.88;;;256.80;2252.80;;;;;;5025373;28;20135;-79
2024/03/08 08:29:59;;;;;;;46.60;29.08;;;256.90;2252.80;;;;;;5026105;28;20037;-79
2024/03/08 08:32:25;;;;;;;39.22;27.85;;;256.80;2252.80;;;;;;4989786;28;20030;-74
2024/03/08 08:34:51;;;;;;;200.82;140.43;;;256.70;2252.80;;;;;;4997576;28;20040;-77
2024/03/08 08:37:17;;;;;;;46.58;34.60;;;256.70;2252.80;;;;;;4989586;28;20037;-79
2024/03/08 08:39:43;;;;;;;53.15;35.70;;;256.80;2252.80;;;;;;4995579;28;20026;-80
2024/03/08 08:42:09;;;;;;;87.55;59.80;;;256.60;2252.80;;;;;;4997009;28;20153;-70
2024/03/08 08:44:35;;;;;;;47.20;34.05;;;256.80;2252.80;;;;;;4989441;28;20038;-72
2024/03/08 08:47:04;;;;;;;50.47;35.05;;;256.90;2252.80;;;;;;5009002;28;20033;-72
2024/03/08 08:49:30;;;;;;;61.00;45.05;;;256.90;2252.80;;;;;;4989743;28;20049;-73
2024/03/08 08:51:58;;;;;;;392.30;262.25;;;281.70;2278.40;;;;;;5009550;28;20089;-75
2024/03/08 08:54:25;;;;;;;55.15;39.15;;;281.70;2278.40;;;;;;5009127;28;20029;-79
2024/03/08 08:56:51;;;;;;;52.63;36.50;;;281.80;2278.40;;;;;;5008840;28;20727;-78
2024/03/08 08:59:19;;;;;;;35.65;24.27;;;281.90;2278.40;;;;;;5008577;28;20030;-79
2024/03/08 09:01:50;;;;;;;120.20;73.22;;;282.00;2278.40;;;;;;5009139;28;20026;-78
2024/03/08 09:04:16;;;;;;;81.80;50.38;;;281.80;2278.40;;;;;;5008625;28;20030;-73
2024/03/08 09:06:42;;;;;;;46.72;29.40;;;282.20;2278.40;;;;;;5008906;28;20026;-78
2024/03/08 09:09:13;;;;;;;121.28;62.83;;;282.10;2278.40;;;;;;5008183;28;20034;-80
2024/03/08 09:11:41;;;;;;;149.18;75.32;;;282.10;2278.40;;;;;;5008614;28;20033;-80
2024/03/08 09:14:08;;;;;;;116.50;69.45;;;282.10;2278.40;;;;;;5008575;28;20515;-79
2024/03/08 09:16:34;;;;;;;43.50;28.70;;;282.20;2278.40;;;;;;5008783;28;20468;-75
2024/03/08 09:19:00;;;;;;;45.05;27.77;;;282.20;2278.40;;;;;;5010145;28;20043;-79
2024/03/08 09:21:27;;;;;;;40.58;28.05;;;282.30;2278.40;;;;;;5009696;28;20451;-79
2024/03/08 09:23:53;;;;;;;53.22;33.58;;;282.30;2278.40;;;;;;5007693;28;20026;-81
2024/03/08 09:26:19;;;;;;;74.03;42.75;;;307.20;2304.00;;;;;;5009074;28;20049;-80
2024/03/08 09:28:45;;;;;;;22.98;17.10;;;307.30;2304.00;;;;;;5011913;28;20100;-74
2024/03/08 09:31:12;;;;;;;94.85;55.42;;;282.30;2278.40;;;;;;5012437;28;20065;-72
2024/03/08 09:33:39;;;;;;;35.85;23.80;;;282.40;2278.40;;;;;;5012058;28;20017;-73
2024/03/08 09:36:08;;;;;;;30.20;20.10;;;282.50;2278.40;;;;;;5012103;28;20044;-71
2024/03/08 09:38:34;;;;;;;32.65;20.55;;;307.30;2304.00;;;;;;5012043;28;20036;-76
2024/03/08 09:41:01;;;;;;;39.83;25.13;;;307.30;2304.00;;;;;;5011776;28;20021;-74
2024/03/08 09:43:28;;;;;;;31.88;20.50;;;307.40;2304.00;;;;;;5011865;28;20026;-80
2024/03/08 09:45:55;;;;;;;22.35;15.63;;;307.30;2304.00;;;;;;5012464;28;20030;-76
2024/03/08 09:48:22;;;;;;;24.38;16.73;;;307.30;2304.00;;;;;;5000123;28;20591;-82
2024/03/08 09:50:48;;;;;;;22.67;14.68;;;307.30;2304.00;;;;;;5011595;28;20483;-80
2024/03/08 09:53:14;;;;;;;22.88;15.40;;;307.30;2304.00;;;;;;5011968;28;20026;-81
2024/03/08 09:55:44;;;;;;;25.75;17.05;;;307.40;2304.00;;;;;;5011727;28;20080;-81
2024/03/08 10:00:54;;;;;;;18.20;11.40;;;307.70;2304.00;;;;;;5011717;28;20022;-79
2024/03/08 10:03:20;;;;;;;87.45;53.53;;;307.90;2304.00;;;;;;5011998;28;20034;-76
2024/03/08 10:05:46;;;;;;;45.05;33.88;;;308.00;2304.00;;;;;;5011511;28;20029;-79
2024/03/08 10:08:13;;;;;;;25.15;18.90;;;307.80;2304.00;;;;;;5011626;28;20065;-82
2024/03/08 10:10:39;;;;;;;36.10;22.73;;;307.80;2304.00;;;;;;5010932;28;20465;-81
2024/03/08 10:13:09;;;;;;;22.92;17.23;;;308.10;2304.00;;;;;;5009885;28;20018;-79
2024/03/08 10:15:36;;;;;;;42.38;29.42;;;307.80;2304.00;;;;;;5014980;28;20056;-80
2024/03/08 10:18:02;;;;;;;18.38;12.15;;;307.90;2304.00;;;;;;5017747;28;20021;-77
2024/03/08 10:20:33;;;;;;;16.30;10.70;;;307.90;2304.00;;;;;;5008423;28;20069;-80
2024/03/08 10:23:06;;;;;;;14.02;10.02;;;307.60;2304.00;;;;;;5020556;28;20375;-78
2024/03/08 10:25:33;;;;;;;15.10;11.45;;;307.80;2304.00;;;;;;5013834;28;20482;-73
2024/03/08 10:27:59;;;;;;;22.95;15.15;;;307.70;2304.00;;;;;;5005386;28;20492;-73
2024/03/08 10:30:25;;;;;;;24.35;16.95;;;307.80;2304.00;;;;;;5014561;28;20022;-80
2024/03/08 10:32:51;;;;;;;29.83;20.70;;;307.90;2304.00;;;;;;5005346;28;20033;-77
2024/03/08 10:35:18;;;;;;;17.70;12.10;;;308.10;2304.00;;;;;;5003284;28;20033;-77
2024/03/08 10:37:59;;;;;;;24.05;18.27;;;308.10;2304.00;;;;;;5010769;28;20053;-71
2024/03/08 10:40:26;;;;;;;22.52;16.05;;;332.90;2329.60;;;;;;5010808;28;20025;-72
2024/03/08 10:42:59;;;;;;;67.20;46.42;;;333.00;2329.60;;;;;;5010973;28;20049;-72
2024/03/08 10:45:25;;;;;;;23.08;16.77;;;333.30;2329.60;;;;;;5010671;28;20031;-71
2024/03/08 10:48:05;;;;;;;160.90;87.70;;;333.20;2329.60;;;;;;5013021;28;20065;-71
2024/03/08 10:50:34;;;;;;;362.77;227.23;;;333.30;2329.60;;;;;;5016397;28;20022;-71
2024/03/08 10:53:01;;;;;;;72.18;48.22;;;333.30;2329.60;;;;;;5010465;28;20049;-69
2024/03/08 10:55:28;;;;;;;18.88;13.30;;;333.40;2329.60;;;;;;5010341;28;20026;-72
2024/03/08 10:57:54;;;;;;;24.98;16.38;;;333.30;2329.60;;;;;;5010739;28;20026;-72
2024/03/08 11:00:26;;;;;;;18.00;13.05;;;333.60;2329.60;;;;;;5010479;28;20830;-72
2024/03/08 11:02:56;;;;;;;29.00;20.05;;;333.50;2329.60;;;;;;5004752;28;20029;-71
2024/03/08 11:05:40;;;;;;;34.92;26.05;;;333.50;2329.60;;;;;;5010454;28;20375;-71
2024/03/08 11:08:18;;;;;;;48.53;35.67;;;333.40;2329.60;;;;;;5010214;28;20404;-72
2024/03/08 11:10:55;;;;;;;24.17;18.08;;;333.50;2329.60;;;;;;5010116;28;20299;-72
2024/03/08 11:13:34;;;;;;;27.10;21.30;;;333.70;2329.60;;;;;;5010341;28;20084;-71
2024/03/08 11:16:00;;;;;;;20.25;17.58;;;358.50;2329.60;;;;;;5010388;28;20164;-71
2024/03/08 11:18:27;;;;;;;18.52;13.88;;;358.70;2329.60;;;;;;5010337;28;20096;-71
2024/03/08 11:20:57;;;;;;;22.23;16.40;;;358.70;2329.60;;;;;;5010519;28;20037;-71
2024/03/08 11:23:25;;;;;;;30.58;20.73;;;358.60;2329.60;;;;;;5010396;28;20022;-71
2024/03/08 11:25:52;;;;;;;20.05;14.85;;;358.50;2329.60;;;;;;5010008;28;20752;-71
2024/03/08 11:28:24;;;;;;;15.30;10.85;;;358.40;2329.60;;;;;;5009522;28;20050;-72
2024/03/08 11:30:58;;;;;;;20.02;14.05;;;333.70;2329.60;;;;;;5010323;28;20022;-73
2024/03/08 11:33:29;;;;;;;19.70;14.18;;;333.60;2329.60;;;;;;5009782;28;20033;-73
2024/03/08 11:36:21;;;;;;;17.92;12.68;;;333.40;2329.60;;;;;;5009968;28;20476;-72
2024/03/08 11:38:48;;;;;;;32.40;22.35;;;333.30;2329.60;;;;;;4999467;28;20029;-75
2024/03/08 11:41:22;;;;;;;23.85;14.18;;;333.40;2329.60;;;;;;4983406;28;20216;-72
2024/03/08 11:43:50;;;;;;;14.43;10.75;;;333.40;2329.60;;;;;;5014198;28;20052;-71
2024/03/08 11:46:17;;;;;;;12.32;9.35;;;333.50;2329.60;;;;;;5010003;28;20109;-72
2024/03/08 11:48:44;;;;;;;27.27;18.63;;;333.70;2329.60;;;;;;4995041;28;20045;-72
2024/03/08 11:51:18;;;;;;;22.00;18.63;;;358.50;2329.60;;;;;;5019737;28;20073;-72
2024/03/08 11:53:45;;;;;;;19.88;14.40;;;358.70;2329.60;;;;;;5001826;28;20030;-72
2024/03/08 11:56:13;;;;;;;14.55;10.82;;;358.40;2329.60;;;;;;5013261;28;20108;-72
2024/03/08 11:58:40;;;;;;;15.13;11.45;;;333.70;2329.60;;;;;;4995444;28;20025;-71
2024/03/08 12:01:13;;;;;;;23.35;15.00;;;333.70;2329.60;;;;;;4980471;28;20026;-73
2024/03/08 12:03:44;;;;;;;16.27;13.07;;;333.50;2329.60;;;;;;4995327;28;20081;-71